Weather History for La Porte, IN

Change the Weather History Date:

Wednesday, April 23, 2014

  Actual Average (KVPZ) Record (KVPZ)
Temperature  
Mean Temperature 40 °F 52 °F  
Max Temperature 49 °F 63 °F 78 °F (2008)
Min Temperature 32 °F 41 °F 30 °F (2002)
Degree Days  
Heating Degree Days 24 13  
Month to date heating degree days 397  
Since 1 July heating degree days 5974  
Cooling Degree Days 0 0  
Month to date cooling degree days 0  
Year to date cooling degree days 0  
Moisture  
Dew Point 30 °F    
Average Humidity 66    
Maximum Humidity 85    
Minimum Humidity 52    
Precipitation  
Precipitation 0.00 in 0.11 in 0.59 in (1999)
Month to date precipitation 2.55  
Year to date precipitation 8.20  
Sea Level Pressure  
Sea Level Pressure 30.11 in    
Wind  
Wind Speed 8 mph (North)    
Max Wind Speed 15 mph    
Max Gust Speed 20 mph    
Visibility 10 miles    
Events      
T = Trace of Precipitation, MM = Missing Value Source: NWS Daily Summary

Daily Weather History Graph

Daily Weather History Graph

Search for Another Location

Airport:

Trip Planner

Search our weather history database for the weather conditions in past years. The results will help you decide how hot, cold, wet, or windy it might be!

Date:

Astronomy

Apr. 23, 2014 Rise Set
Actual Time 5:54 AM CDT 7:36 PM CDT
Civil Twilight 5:25 AM CDT 8:05 PM CDT
Nautical Twilight 4:49 AM CDT 8:41 PM CDT
Astronomical Twilight 4:11 AM CDT 9:19 PM CDT
Moon 2:31 AM CDT (4/23) 1:39 PM CDT (4/23)
Length of Visible Light 14h 40m
Length of Day
13h 41m
Waning Crescent, 34% of the Moon is Illuminated
Apr 23
Waning Crescent
Apr 29
New
May 6
First Quarter
May 14
Full
May 21
Last Quarter

Hourly Weather History & Observations

Time (CDT) Temp. Windchill Dew Point Humidity Pressure Visibility Wind Dir Wind Speed Gust Speed Precip Events Conditions
12:15 AM 35.1 °F 30.1 °F 27.9 °F 75% 30.06 in 10.0 mi North 5.8 mph - N/A   Clear
12:35 AM 34.0 °F 28.0 °F 27.5 °F 77% 30.07 in 10.0 mi NNW 6.9 mph - N/A   Clear
12:55 AM 34.5 °F 28.6 °F 28.4 °F 78% 30.07 in 10.0 mi North 6.9 mph - N/A   Clear
1:15 AM 34.9 °F 26.6 °F 29.1 °F 79% 30.07 in 10.0 mi North 11.5 mph - N/A   Clear
1:35 AM 35.2 °F 27.1 °F 29.1 °F 78% 30.08 in 10.0 mi North 11.5 mph - N/A   Clear
1:55 AM 34.3 °F 28.4 °F 28.6 °F 79% 30.08 in 10.0 mi NNW 6.9 mph - N/A   Clear
2:15 AM 34.0 °F 28.0 °F 28.9 °F 82% 30.08 in 10.0 mi NNW 6.9 mph - N/A   Clear
2:35 AM 33.6 °F 26.8 °F 28.9 °F 83% 30.08 in 10.0 mi NW 8.1 mph - N/A   Clear
2:55 AM 33.8 °F 26.4 °F 28.0 °F 79% 30.08 in 10.0 mi NNW 9.2 mph - N/A   Clear
3:15 AM 33.8 °F 25.8 °F 27.5 °F 78% 30.09 in 10.0 mi NNW 10.4 mph - N/A   Clear
3:35 AM 33.8 °F 25.8 °F 27.5 °F 78% 30.09 in 10.0 mi North 10.4 mph - N/A   Clear
3:55 AM 34.2 °F 24.8 °F 27.1 °F 75% 30.09 in 10.0 mi North 13.8 mph 19.6 mph N/A   Clear
4:15 AM 33.8 °F 25.3 °F 26.6 °F 75% 30.10 in 10.0 mi North 11.5 mph - N/A   Clear
4:35 AM 33.6 °F 25.0 °F 26.8 °F 76% 30.11 in 10.0 mi North 11.5 mph - N/A   Clear
4:55 AM 33.1 °F 23.9 °F 27.5 °F 80% 30.11 in 10.0 mi North 12.7 mph - N/A   Clear
5:15 AM 32.9 °F 25.3 °F 27.5 °F 81% 30.11 in 10.0 mi North 9.2 mph - N/A   Clear
5:35 AM 32.4 °F 24.6 °F 27.5 °F 82% 30.12 in 10.0 mi North 9.2 mph - N/A   Clear
5:55 AM 32.0 °F 24.2 °F 27.5 °F 83% 30.12 in 10.0 mi North 9.2 mph - N/A   Clear
6:15 AM 32.5 °F 24.2 °F 28.4 °F 85% 30.12 in 10.0 mi North 10.4 mph - N/A   Clear
6:35 AM 33.3 °F 24.6 °F 28.9 °F 84% 30.12 in 10.0 mi North 11.5 mph - N/A   Clear
6:55 AM 34.3 °F 26.5 °F 29.3 °F 82% 30.13 in 10.0 mi North 10.4 mph - N/A   Clear
7:15 AM 35.2 °F 27.1 °F 29.3 °F 79% 30.14 in 10.0 mi North 11.5 mph 16.1 mph N/A   Clear
7:35 AM 36.1 °F 26.9 °F 29.7 °F 77% 30.13 in 10.0 mi NNE 15.0 mph - N/A   Clear
7:55 AM 37.2 °F 28.3 °F 29.3 °F 73% 30.14 in 10.0 mi NNE 15.0 mph 18.4 mph N/A   Clear
8:15 AM 38.7 °F 31.8 °F 28.2 °F 66% 30.15 in 10.0 mi North 10.4 mph - N/A   Clear
8:35 AM 39.2 °F 33.0 °F 27.9 °F 64% 30.16 in 10.0 mi North 9.2 mph 17.3 mph N/A   Clear
8:55 AM 39.9 °F 35.1 °F 29.1 °F 65% 30.15 in 10.0 mi North 6.9 mph - N/A   Clear
9:15 AM 40.6 °F 35.4 °F 29.7 °F 65% 30.15 in 10.0 mi North 8.1 mph - N/A   Clear
9:35 AM 41.2 °F 36.6 °F 29.7 °F 64% 30.15 in 10.0 mi North 6.9 mph - N/A   Clear
9:55 AM 42.1 °F 37.7 °F 30.0 °F 62% 30.16 in 10.0 mi NNW 6.9 mph - N/A   Clear
10:15 AM 42.6 °F 38.4 °F 31.1 °F 64% 30.16 in 10.0 mi NW 6.9 mph - N/A   Scattered Clouds
10:35 AM 42.8 °F 38.6 °F 30.9 °F 63% 30.16 in 10.0 mi North 6.9 mph - N/A   Clear
10:55 AM 43.7 °F 41.1 °F 31.5 °F 62% 30.16 in 10.0 mi NNW 4.6 mph - N/A   Clear
11:15 AM 45.0 °F 43.5 °F 31.1 °F 58% 30.15 in 10.0 mi NNE 3.5 mph - N/A   Clear
11:35 AM 45.9 °F - 32.4 °F 59% 30.15 in 10.0 mi Calm Calm - N/A   Clear
11:55 AM 46.6 °F - 31.8 °F 56% 30.15 in 10.0 mi Calm Calm - N/A   Clear
12:15 PM 47.5 °F - 32.2 °F 55% 30.14 in 10.0 mi NE 5.8 mph - N/A   Clear
12:35 PM 47.7 °F - 32.4 °F 55% 30.14 in 10.0 mi NNW 5.8 mph - N/A   Clear
1:15 PM 49.1 °F - 33.6 °F 55% 30.15 in 10.0 mi NNW 8.1 mph 16.1 mph N/A   Clear
1:35 PM 49.1 °F - 34.0 °F 56% 30.15 in 10.0 mi NNW 10.4 mph - N/A   Clear
1:55 PM 48.0 °F - 33.1 °F 56% 30.14 in 10.0 mi NNW 8.1 mph - N/A   Clear
2:15 PM 47.5 °F - 33.1 °F 57% 30.14 in 10.0 mi NNW 9.2 mph 17.3 mph N/A   Clear
2:35 PM 48.2 °F - 32.9 °F 55% 30.14 in 10.0 mi North 10.4 mph 18.4 mph N/A   Clear
2:55 PM 48.0 °F - 32.0 °F 54% 30.13 in 10.0 mi North 10.4 mph - N/A   Clear
3:15 PM 47.3 °F - 32.0 °F 55% 30.13 in 10.0 mi North 10.4 mph - N/A   Clear
3:35 PM 48.0 °F - 32.0 °F 54% 30.12 in 10.0 mi North 9.2 mph - N/A   Clear
3:55 PM 47.7 °F - 32.0 °F 55% 30.11 in 10.0 mi North 9.2 mph - N/A   Clear
4:15 PM 47.8 °F - 31.6 °F 53% 30.11 in 10.0 mi North 5.8 mph - N/A   Clear
4:35 PM 47.8 °F - 32.0 °F 54% 30.11 in 10.0 mi NNW 6.9 mph - N/A   Clear
4:55 PM 48.2 °F - 31.5 °F 52% 30.11 in 10.0 mi NNW 10.4 mph - N/A   Clear
5:15 PM 48.0 °F - 31.3 °F 52% 30.11 in 10.0 mi NNW 10.4 mph - N/A   Clear
5:35 PM 46.9 °F - 30.4 °F 53% 30.11 in 10.0 mi North 9.2 mph - N/A   Clear
5:55 PM 45.5 °F 39.9 °F 29.8 °F 54% 30.11 in 10.0 mi North 11.5 mph - N/A   Clear
6:15 PM 44.1 °F 39.0 °F 29.7 °F 57% 30.11 in 10.0 mi North 9.2 mph - N/A   Clear
6:35 PM 43.2 °F 37.9 °F 28.9 °F 57% 30.11 in 10.0 mi North 9.2 mph - N/A   Clear
6:55 PM 42.3 °F 36.8 °F 28.8 °F 59% 30.11 in 10.0 mi North 9.2 mph - N/A   Scattered Clouds
7:15 PM 41.2 °F 35.5 °F 28.6 °F 61% 30.11 in 10.0 mi NNW 9.2 mph - N/A   Scattered Clouds
7:35 PM 40.5 °F 34.6 °F 27.9 °F 61% 30.11 in 10.0 mi North 9.2 mph - N/A   Scattered Clouds
7:55 PM 40.1 °F 34.7 °F 28.4 °F 63% 30.11 in 10.0 mi North 8.1 mph - N/A   Mostly Cloudy
8:15 PM 40.1 °F 34.1 °F 27.3 °F 60% 30.11 in 10.0 mi North 9.2 mph - N/A   Overcast
8:35 PM 40.3 °F 36.3 °F 27.3 °F 60% 30.12 in 10.0 mi North 5.8 mph - N/A   Overcast
8:55 PM 40.3 °F 37.1 °F 27.3 °F 60% 30.12 in 10.0 mi NNE 4.6 mph - N/A   Overcast
9:15 PM 40.5 °F 36.5 °F 27.3 °F 59% 30.12 in 10.0 mi NNE 5.8 mph - N/A   Overcast
9:35 PM 40.6 °F 37.5 °F 27.5 °F 59% 30.11 in 10.0 mi NE 4.6 mph - N/A   Mostly Cloudy
9:55 PM 40.6 °F 38.6 °F 27.7 °F 60% 30.10 in 10.0 mi ENE 3.5 mph - N/A   Mostly Cloudy
10:15 PM 41.0 °F 37.1 °F 28.4 °F 61% 30.09 in 10.0 mi ENE 5.8 mph - N/A   Overcast
10:35 PM 41.0 °F 37.1 °F 29.1 °F 63% 30.08 in 10.0 mi ENE 5.8 mph - N/A   Mostly Cloudy
10:55 PM 41.2 °F 38.2 °F 29.7 °F 64% 30.07 in 10.0 mi ENE 4.6 mph - N/A   Mostly Cloudy
11:15 PM 41.9 °F 38.2 °F 30.0 °F 63% 30.07 in 10.0 mi East 5.8 mph - N/A   Overcast
11:35 PM 42.3 °F 38.6 °F 29.5 °F 61% 30.05 in 10.0 mi East 5.8 mph - N/A   Overcast
11:55 PM 42.4 °F 38.1 °F 29.3 °F 60% 30.05 in 10.0 mi East 6.9 mph - N/A   Overcast